Time;durP1;ratioP1;P1;durP2;ratioP2;P2;SDS_P1;SDS_P2;PMS_P1;PMS_P2;Temp;Humidity;BMP_temperature;BMP_pressure;BME280_temperature;BME280_humidity;BME280_pressure;Samples;Min_cycle;Max_cycle;Signal;HPM_P1;HPM_P2
2022/11/15 00:00:03;;;;;;;2.47;1.20;;;;;7.30;95737.00;;;;5096203;28;20248;-60
2022/11/15 00:02:30;;;;;;;1.50;1.40;;;;;7.30;95732.00;;;;5078373;28;20206;-60
2022/11/15 00:04:58;;;;;;;1.50;1.40;;;;;7.20;95738.00;;;;5078304;28;20309;-59
2022/11/15 00:07:27;;;;;;;1.00;1.00;;;;;7.20;95738.00;;;;5096239;28;20283;-59
2022/11/15 00:09:56;;;;;;;1.50;1.40;;;;;7.30;95731.00;;;;5096186;28;20281;-60
2022/11/15 00:12:23;;;;;;;1.07;1.07;;;;;7.20;95734.00;;;;5095963;28;20218;-59
2022/11/15 00:14:50;;;;;;;0.90;0.90;;;;;7.10;95730.00;;;;5096044;28;20256;-60
2022/11/15 00:17:16;;;;;;;1.07;1.07;;;;;7.10;95728.00;;;;5096095;28;20226;-59
2022/11/15 00:19:43;;;;;;;0.70;0.70;;;;;7.00;95731.00;;;;5078279;28;20199;-60
2022/11/15 00:22:10;;;;;;;1.47;1.37;;;;;7.00;95726.00;;;;5095940;28;20214;-60
2022/11/15 00:24:37;;;;;;;2.97;1.23;;;;;7.00;95725.00;;;;5095725;28;20740;-60
2022/11/15 00:27:04;;;;;;;0.90;0.90;;;;;7.10;95729.00;;;;5095693;28;20207;-60
2022/11/15 00:29:33;;;;;;;1.07;1.07;;;;;7.10;95732.00;;;;5095894;28;20279;-61
2022/11/15 00:32:00;;;;;;;0.90;0.90;;;;;7.10;95722.00;;;;5095659;28;20202;-62
2022/11/15 00:34:27;;;;;;;0.73;0.73;;;;;7.10;95716.00;;;;5095543;28;20222;-60
2022/11/15 00:36:56;;;;;;;1.00;1.00;;;;;7.10;95715.00;;;;5095618;28;20538;-60
2022/11/15 00:39:23;;;;;;;1.10;1.10;;;;;7.10;95711.00;;;;5095742;28;20223;-60
2022/11/15 00:41:52;;;;;;;1.00;1.00;;;;;7.10;95716.00;;;;5077778;28;20198;-61
2022/11/15 00:44:19;;;;;;;1.00;1.00;;;;;7.20;95719.00;;;;5095364;28;20271;-60
2022/11/15 00:46:46;;;;;;;1.30;1.30;;;;;7.20;95722.00;;;;5095722;28;20201;-62
2022/11/15 00:49:12;;;;;;;0.80;0.80;;;;;7.20;95720.00;;;;5095892;28;20198;-61
2022/11/15 00:51:39;;;;;;;1.07;1.07;;;;;7.20;95707.00;;;;5095463;28;20207;-60
2022/11/15 00:54:06;;;;;;;0.90;0.90;;;;;7.30;95708.00;;;;5095493;28;20556;-63
2022/11/15 00:56:33;;;;;;;1.30;1.20;;;;;7.30;95710.00;;;;5095247;28;20231;-60
2022/11/15 00:59:00;;;;;;;0.87;0.87;;;;;7.20;95710.00;;;;5077436;28;20604;-60
2022/11/15 01:01:27;;;;;;;0.93;0.93;;;;;7.50;95708.00;;;;5076990;28;20218;-60
2022/11/15 01:03:54;;;;;;;1.20;1.17;;;;;7.40;95709.00;;;;5095145;28;20206;-60
2022/11/15 01:06:23;;;;;;;0.80;0.80;;;;;7.40;95701.00;;;;5077132;28;20321;-60
2022/11/15 01:08:51;;;;;;;0.70;0.70;;;;;7.30;95700.00;;;;5095193;28;20202;-60
2022/11/15 01:11:18;;;;;;;1.10;1.10;;;;;7.20;95697.00;;;;5094996;28;20583;-59
2022/11/15 01:13:46;;;;;;;1.57;1.47;;;;;7.30;95691.00;;;;5095208;28;20551;-59
2022/11/15 01:16:14;;;;;;;0.70;0.70;;;;;7.50;95696.00;;;;5094910;28;20273;-60
2022/11/15 01:18:42;;;;;;;0.93;0.93;;;;;7.40;95688.00;;;;5077123;28;20226;-60
2022/11/15 01:21:10;;;;;;;1.50;1.40;;;;;7.20;95684.00;;;;5094785;28;20195;-60
2022/11/15 01:23:37;;;;;;;1.17;1.10;;;;;7.20;95688.00;;;;5094714;28;20231;-60
2022/11/15 01:26:06;;;;;;;5.70;1.67;;;;;7.20;95679.00;;;;5094612;28;20612;-60
2022/11/15 01:28:35;;;;;;;0.90;0.90;;;;;7.20;95686.00;;;;5094728;28;20199;-60
2022/11/15 01:31:04;;;;;;;0.70;0.70;;;;;7.20;95680.00;;;;5076971;28;20194;-60
2022/11/15 01:33:31;;;;;;;1.27;1.23;;;;;7.20;95686.00;;;;5094659;28;20199;-60
2022/11/15 01:35:57;;;;;;;1.17;1.17;;;;;7.20;95684.00;;;;5094475;28;20214;-60
2022/11/15 01:38:24;;;;;;;0.90;0.90;;;;;7.10;95684.00;;;;5076769;28;20198;-60
2022/11/15 01:40:51;;;;;;;3.50;1.37;;;;;7.10;95678.00;;;;5094454;28;20218;-60
2022/11/15 01:43:23;;;;;;;0.80;0.80;;;;;7.00;95676.00;;;;5094496;28;20267;-60
2022/11/15 01:45:56;;;;;;;1.10;1.10;;;;;7.00;95680.00;;;;5094315;28;20242;-60
2022/11/15 01:48:31;;;;;;;0.90;0.90;;;;;6.90;95677.00;;;;5094438;28;20191;-62
2022/11/15 01:50:59;;;;;;;0.90;0.90;;;;;6.90;95675.00;;;;5094579;28;20193;-63
2022/11/15 01:53:27;;;;;;;1.47;1.37;;;;;6.90;95674.00;;;;5094549;28;20251;-60
2022/11/15 01:55:55;;;;;;;1.10;1.10;;;;;6.90;95668.00;;;;5094441;28;20217;-60
2022/11/15 01:58:22;;;;;;;4.20;1.23;;;;;6.80;95657.00;;;;5094228;28;20225;-60
2022/11/15 02:00:50;;;;;;;0.60;0.60;;;;;6.80;95668.00;;;;5094320;28;20204;-60
2022/11/15 02:03:17;;;;;;;2.00;1.90;;;;;6.80;95650.00;;;;5076587;28;20557;-60
2022/11/15 02:05:44;;;;;;;1.57;1.47;;;;;6.80;95649.00;;;;5094157;28;20234;-60
2022/11/15 02:08:19;;;;;;;1.87;1.60;;;;;6.90;95653.00;;;;5076578;28;20548;-60
2022/11/15 02:10:46;;;;;;;1.90;1.27;;;;;7.00;95643.00;;;;5076209;28;20202;-60
2022/11/15 02:13:15;;;;;;;1.33;1.23;;;;;7.00;95651.00;;;;5093023;28;20211;-60
2022/11/15 02:15:46;;;;;;;0.83;0.83;;;;;7.00;95655.00;;;;5076126;28;20647;-59
2022/11/15 02:18:23;;;;;;;0.90;0.90;;;;;7.00;95648.00;;;;5094077;28;20558;-60
2022/11/15 02:21:17;;;;;;;0.90;0.90;;;;;7.00;95644.00;;;;5076246;28;20283;-60
2022/11/15 02:24:16;;;;;;;0.80;0.80;;;;;6.90;95639.00;;;;5094278;28;20194;-60
2022/11/15 02:27:20;;;;;;;1.10;1.10;;;;;6.90;95634.00;;;;5093856;28;20238;-60
2022/11/15 02:30:18;;;;;;;1.03;1.03;;;;;6.80;95633.00;;;;5093871;28;20266;-60
2022/11/15 02:32:49;;;;;;;1.47;1.43;;;;;6.80;95627.00;;;;5093899;28;20194;-60
2022/11/15 02:35:27;;;;;;;1.00;1.00;;;;;6.80;95619.00;;;;5093859;28;20524;-60
2022/11/15 02:37:58;;;;;;;1.70;1.60;;;;;6.80;95622.00;;;;5093754;28;20228;-60
2022/11/15 02:40:35;;;;;;;0.73;0.73;;;;;6.90;95621.00;;;;5094061;28;20611;-60
2022/11/15 02:46:04;;;;;;;0.80;0.80;;;;;6.90;95617.00;;;;5093624;28;20554;-60
2022/11/15 02:48:33;;;;;;;0.97;0.97;;;;;6.90;95614.00;;;;5093487;28;20218;-60
2022/11/15 02:51:01;;;;;;;2.93;2.03;;;;;6.90;95610.00;;;;5093523;28;20235;-60
2022/11/15 02:53:28;;;;;;;0.77;0.77;;;;;6.90;95608.00;;;;5093523;28;20219;-62
2022/11/15 02:55:56;;;;;;;1.17;1.17;;;;;6.90;95601.00;;;;5093473;28;20271;-60
2022/11/15 02:58:49;;;;;;;0.70;0.70;;;;;6.80;95590.00;;;;5075491;28;20194;-60
2022/11/15 03:01:29;;;;;;;0.70;0.70;;;;;6.60;95583.00;;;;5093425;28;20202;-60
2022/11/15 03:04:06;;;;;;;22.83;1.53;;;;;6.70;95588.00;;;;5093563;28;20221;-60
2022/11/15 03:06:40;;;;;;;1.03;0.93;;;;;6.40;95592.00;;;;5093328;28;20218;-60
2022/11/15 03:09:14;;;;;;;0.70;0.70;;;;;6.20;95598.00;;;;5093498;28;20198;-61
2022/11/15 03:11:47;;;;;;;1.07;1.07;;;;;6.20;95595.00;;;;5075280;28;20658;-61
2022/11/15 03:14:21;;;;;;;1.00;1.00;;;;;6.20;95587.00;;;;5093549;28;20264;-63
2022/11/15 03:16:59;;;;;;;0.93;0.93;;;;;6.30;95591.00;;;;5075709;28;20298;-63
2022/11/15 03:19:32;;;;;;;1.70;1.33;;;;;6.30;95590.00;;;;5093498;28;20195;-61
2022/11/15 03:22:01;;;;;;;1.20;1.20;;;;;6.30;95579.00;;;;5093338;28;20218;-60
2022/11/15 03:24:31;;;;;;;1.17;1.17;;;;;6.30;95585.00;;;;5097960;28;20195;-60
2022/11/15 03:27:01;;;;;;;1.73;1.63;;;;;6.30;95585.00;;;;5091000;28;20274;-60
2022/11/15 03:29:34;;;;;;;1.30;1.30;;;;;6.30;95575.00;;;;5097166;28;20259;-60
2022/11/15 03:32:06;;;;;;;0.97;0.97;;;;;6.40;95575.00;;;;5096794;28;20186;-61
2022/11/15 03:34:38;;;;;;;1.10;1.00;;;;;6.30;95576.00;;;;5096626;28;20263;-60
2022/11/15 03:37:06;;;;;;;1.10;1.00;;;;;6.20;95574.00;;;;5078988;28;20201;-64
2022/11/15 03:39:34;;;;;;;0.80;0.80;;;;;6.20;95581.00;;;;5096591;28;20218;-62
2022/11/15 03:42:10;;;;;;;0.87;0.87;;;;;6.10;95586.00;;;;5096761;28;20190;-60
2022/11/15 03:44:45;;;;;;;1.10;1.10;;;;;6.00;95566.00;;;;5096626;28;20230;-62
2022/11/15 03:47:21;;;;;;;0.90;0.90;;;;;6.00;95575.00;;;;5097040;28;20224;-62
2022/11/15 03:49:53;;;;;;;1.53;1.43;;;;;6.00;95575.00;;;;5096714;28;20232;-62
2022/11/15 03:52:20;;;;;;;1.03;1.03;;;;;6.20;95570.00;;;;5096434;28;20186;-62
2022/11/15 03:54:52;;;;;;;1.33;1.23;;;;;6.20;95567.00;;;;5096711;28;20190;-62
2022/11/15 03:57:19;;;;;;;0.80;0.80;;;;;6.20;95569.00;;;;5078600;28;20666;-66
2022/11/15 03:59:46;;;;;;;1.37;1.33;;;;;6.20;95566.00;;;;5096516;28;20202;-62
2022/11/15 04:02:13;;;;;;;2.00;1.90;;;;;6.30;95558.00;;;;5096672;28;20522;-62
2022/11/15 04:04:41;;;;;;;0.83;0.83;;;;;6.40;95561.00;;;;5096479;28;20222;-62
2022/11/15 04:07:07;;;;;;;0.97;0.97;;;;;6.40;95562.00;;;;5096469;28;20237;-62
2022/11/15 04:10:01;;;;;;;0.80;0.80;;;;;6.50;95559.00;;;;5096247;28;20777;-64
2022/11/15 04:12:30;;;;;;;0.70;0.70;;;;;6.50;95549.00;;;;5096231;28;20222;-62
2022/11/15 04:15:07;;;;;;;0.83;0.83;;;;;6.60;95557.00;;;;5096180;28;20197;-60
2022/11/15 04:17:34;;;;;;;0.80;0.80;;;;;6.60;95516.00;;;;5096205;28;20187;-60
2022/11/15 04:25:32;;;;;;;0.60;0.60;;;;;6.60;95549.00;;;;5095784;28;20647;-61
2022/11/15 04:27:59;;;;;;;1.00;1.00;;;;;6.50;95551.00;;;;5095795;28;20198;-60
2022/11/15 04:30:26;;;;;;;0.90;0.90;;;;;6.60;95550.00;;;;5095553;28;20249;-61
2022/11/15 04:32:53;;;;;;;1.20;1.20;;;;;6.50;95543.00;;;;5095712;28;20200;-61
2022/11/15 04:35:20;;;;;;;0.73;0.73;;;;;6.50;95553.00;;;;5095575;28;20335;-62
2022/11/15 04:37:47;;;;;;;1.03;1.03;;;;;6.50;95552.00;;;;5094846;28;20193;-60
2022/11/15 04:40:13;;;;;;;1.03;1.00;;;;;6.50;95540.00;;;;5095559;28;20669;-60
2022/11/15 04:42:42;;;;;;;1.00;1.00;;;;;6.60;95549.00;;;;5095680;28;20201;-60
2022/11/15 04:45:09;;;;;;;1.70;1.60;;;;;6.50;95534.00;;;;5095393;28;20666;-60
2022/11/15 04:47:36;;;;;;;1.20;1.20;;;;;6.50;95539.00;;;;5095408;28;20287;-60
2022/11/15 04:50:04;;;;;;;0.93;0.93;;;;;6.50;95525.00;;;;5095502;28;20210;-60
2022/11/15 04:52:31;;;;;;;0.80;0.80;;;;;6.50;95533.00;;;;5095367;28;20222;-60
2022/11/15 04:55:00;;;;;;;1.00;1.00;;;;;6.50;95534.00;;;;5095320;28;20670;-60
2022/11/15 04:57:29;;;;;;;1.20;1.17;;;;;6.50;95536.00;;;;5095192;28;20219;-60
2022/11/15 04:59:56;;;;;;;0.80;0.80;;;;;6.60;95531.00;;;;5095709;28;20175;-60
2022/11/15 05:04:18;;;;;;;1.10;1.10;;;;;6.60;95525.00;;;;5095268;28;20210;-60
2022/11/15 05:05:12;;;;;;;0.63;0.63;;;;;6.70;95519.00;;;;5094974;28;20250;-60
2022/11/15 05:07:39;;;;;;;1.33;1.17;;;;;6.60;95526.00;;;;5095133;28;20267;-60
2022/11/15 05:10:06;;;;;;;1.77;1.63;;;;;6.50;95518.00;;;;5077083;28;20528;-60
2022/11/15 05:12:33;;;;;;;3.33;1.00;;;;;6.50;95517.00;;;;5095066;28;20191;-60
2022/11/15 05:15:00;;;;;;;14.63;1.83;;;;;6.40;95519.00;;;;5095077;28;20234;-60
2022/11/15 05:17:29;;;;;;;0.80;0.80;;;;;6.50;95514.00;;;;5094973;28;20281;-60
2022/11/15 05:19:56;;;;;;;10.00;1.33;;;;;6.50;95512.00;;;;5094849;28;20214;-60
2022/11/15 05:22:22;;;;;;;1.63;1.53;;;;;6.50;95497.00;;;;5094953;28;20183;-60
2022/11/15 05:24:50;;;;;;;1.20;1.10;;;;;6.60;95486.00;;;;5094823;28;20222;-63
2022/11/15 05:27:17;;;;;;;1.03;1.03;;;;;6.50;95498.00;;;;5094854;28;20604;-60
2022/11/15 05:29:44;;;;;;;0.83;0.83;;;;;6.50;95504.00;;;;5094996;28;20230;-60
2022/11/15 05:32:13;;;;;;;1.03;1.03;;;;;6.50;95500.00;;;;5094856;28;20326;-60
2022/11/15 05:34:40;;;;;;;0.77;0.77;;;;;6.50;95496.00;;;;5094737;28;20237;-59
2022/11/15 05:37:09;;;;;;;1.03;1.03;;;;;6.40;95504.00;;;;5094527;28;20282;-63
2022/11/15 05:39:36;;;;;;;1.10;1.10;;;;;6.60;95495.00;;;;5076879;28;20546;-60
2022/11/15 05:42:09;;;;;;;2.27;1.93;;;;;6.50;95482.00;;;;5076755;28;20548;-61
2022/11/15 05:44:39;;;;;;;1.53;1.50;;;;;6.50;95482.00;;;;5094586;28;20198;-61
2022/11/15 05:47:08;;;;;;;6.00;1.43;;;;;6.50;95481.00;;;;5094334;28;20615;-61
2022/11/15 05:49:38;;;;;;;1.87;1.53;;;;;6.50;95491.00;;;;5094260;28;20209;-62
2022/11/15 05:52:08;;;;;;;1.80;1.70;;;;;6.40;95492.00;;;;5094628;28;20204;-63
2022/11/15 05:54:36;;;;;;;2.43;1.73;;;;;6.40;95495.00;;;;5094304;28;20564;-60
2022/11/15 05:57:03;;;;;;;1.20;1.20;;;;;6.30;95491.00;;;;5094591;28;20486;-60
2022/11/15 05:59:31;;;;;;;1.33;1.33;;;;;6.40;95491.00;;;;5094260;28;20217;-60
2022/11/15 06:01:58;;;;;;;1.10;1.10;;;;;6.30;95487.00;;;;5094065;28;20272;-60
2022/11/15 06:04:25;;;;;;;0.93;0.93;;;;;6.30;95490.00;;;;5094116;28;20195;-60
2022/11/15 06:06:52;;;;;;;1.03;1.03;;;;;6.30;95490.00;;;;5094162;28;20276;-60
2022/11/15 06:09:18;;;;;;;0.90;0.90;;;;;6.40;95489.00;;;;5076224;28;20195;-60
2022/11/15 06:11:45;;;;;;;0.77;0.77;;;;;6.40;95491.00;;;;5094061;28;20286;-61
2022/11/15 06:14:13;;;;;;;0.70;0.70;;;;;6.50;95486.00;;;;5094029;28;20626;-61
2022/11/15 06:16:42;;;;;;;0.97;0.97;;;;;6.50;95492.00;;;;5093920;28;20338;-59
2022/11/15 06:19:09;;;;;;;0.90;0.90;;;;;6.40;95497.00;;;;5094453;28;20634;-61
2022/11/15 06:21:35;;;;;;;0.80;0.80;;;;;6.40;95501.00;;;;5093861;28;20190;-61
2022/11/15 06:24:02;;;;;;;1.00;1.00;;;;;6.30;95500.00;;;;5076363;28;20199;-63
2022/11/15 06:26:29;;;;;;;3.23;3.03;;;;;6.30;95497.00;;;;5093987;28;20222;-61
2022/11/15 06:28:56;;;;;;;0.97;0.90;;;;;6.30;95502.00;;;;5093915;28;20224;-64
2022/11/15 06:31:23;;;;;;;1.83;1.73;;;;;6.20;95496.00;;;;5094049;28;20278;-62
2022/11/15 06:33:50;;;;;;;0.70;0.70;;;;;6.30;95502.00;;;;5093660;28;20226;-61
2022/11/15 06:36:17;;;;;;;0.87;0.87;;;;;6.30;95503.00;;;;5076094;28;20214;-61
2022/11/15 06:38:44;;;;;;;0.90;0.90;;;;;6.30;95505.00;;;;5075844;28;20198;-61
2022/11/15 06:41:12;;;;;;;0.80;0.80;;;;;6.30;95514.00;;;;5075962;28;20523;-61
2022/11/15 06:43:40;;;;;;;0.60;0.60;;;;;6.40;95503.00;;;;5093769;28;20673;-63
2022/11/15 06:46:07;;;;;;;0.70;0.70;;;;;6.40;95507.00;;;;5093597;28;20677;-61
2022/11/15 06:48:35;;;;;;;1.80;1.70;;;;;6.50;95513.00;;;;5093682;28;20194;-61
2022/11/15 06:51:04;;;;;;;0.93;0.93;;;;;6.50;95510.00;;;;5093500;28;20232;-60
2022/11/15 06:53:32;;;;;;;1.00;1.00;;;;;6.50;95511.00;;;;5076175;28;20210;-61
2022/11/15 06:56:00;;;;;;;1.00;1.00;;;;;6.50;95512.00;;;;5093424;28;20245;-61
2022/11/15 06:58:30;;;;;;;1.00;1.00;;;;;6.50;95508.00;;;;5075632;28;20207;-61
2022/11/15 07:00:59;;;;;;;2.07;1.97;;;;;6.40;95511.00;;;;5099303;28;20288;-61
2022/11/15 07:03:27;;;;;;;4.33;2.70;;;;;6.50;95515.00;;;;5100256;28;20198;-60
2022/11/15 07:05:55;;;;;;;1.70;1.37;;;;;6.50;95512.00;;;;5100085;28;20282;-61
2022/11/15 07:08:22;;;;;;;1.10;1.10;;;;;6.50;95508.00;;;;5082260;28;20211;-61
2022/11/15 07:10:49;;;;;;;1.47;1.37;;;;;6.50;95495.00;;;;5082645;28;20212;-61
2022/11/15 07:13:18;;;;;;;0.93;0.93;;;;;6.60;95514.00;;;;5099953;28;20232;-61
2022/11/15 07:15:47;;;;;;;0.70;0.70;;;;;6.60;95509.00;;;;5100134;28;20676;-61
2022/11/15 07:18:14;;;;;;;1.40;1.30;;;;;6.80;95513.00;;;;5100219;28;20221;-61
2022/11/15 07:20:43;;;;;;;0.97;0.97;;;;;6.80;95520.00;;;;5100204;28;20692;-61
2022/11/15 07:23:13;;;;;;;0.90;0.90;;;;;6.80;95521.00;;;;5100052;28;20194;-61
2022/11/15 07:25:42;;;;;;;0.90;0.90;;;;;6.80;95508.00;;;;5099815;28;20218;-61
2022/11/15 07:28:08;;;;;;;0.90;0.90;;;;;6.80;95501.00;;;;5099819;28;20201;-61
2022/11/15 07:30:38;;;;;;;2.10;1.90;;;;;6.80;95507.00;;;;5099789;28;20647;-62
2022/11/15 07:33:04;;;;;;;1.17;1.17;;;;;6.90;95504.00;;;;5099883;28;20511;-61
2022/11/15 07:35:31;;;;;;;2.47;1.67;;;;;6.80;95507.00;;;;5081975;28;20230;-63
2022/11/15 07:38:00;;;;;;;1.87;1.77;;;;;6.80;95503.00;;;;5081917;28;20218;-61
2022/11/15 07:40:31;;;;;;;0.90;0.90;;;;;6.80;95499.00;;;;5099686;28;20208;-65
2022/11/15 07:43:02;;;;;;;1.00;1.00;;;;;6.90;95506.00;;;;5099962;28;20614;-61
2022/11/15 07:45:29;;;;;;;1.20;1.20;;;;;6.80;95509.00;;;;5099790;28;20560;-61
2022/11/15 07:47:56;;;;;;;1.13;1.13;;;;;6.90;95509.00;;;;5099755;28;20191;-61
2022/11/15 07:50:23;;;;;;;1.07;1.07;;;;;7.00;95507.00;;;;5099629;28;20195;-61
2022/11/15 07:52:56;;;;;;;1.03;1.03;;;;;7.20;95509.00;;;;5099512;28;20271;-61
2022/11/15 07:55:23;;;;;;;1.13;1.13;;;;;7.30;95496.00;;;;5099480;28;20735;-61
2022/11/15 07:57:51;;;;;;;1.03;1.03;;;;;7.40;95500.00;;;;5099592;28;20222;-61
2022/11/15 08:00:19;;;;;;;0.60;0.60;;;;;7.60;95498.00;;;;5099473;28;20206;-61
2022/11/15 08:02:46;;;;;;;1.13;1.13;;;;;7.70;95499.00;;;;5099276;28;20187;-61
2022/11/15 08:05:14;;;;;;;0.87;0.87;;;;;7.80;95501.00;;;;5099257;28;20218;-61
2022/11/15 08:07:41;;;;;;;1.73;1.63;;;;;7.70;95495.00;;;;5099365;28;20195;-61
2022/11/15 08:10:08;;;;;;;0.83;0.83;;;;;7.70;95493.00;;;;5099180;28;20229;-61
2022/11/15 08:12:35;;;;;;;0.90;0.90;;;;;7.80;95505.00;;;;5094754;28;20199;-61
2022/11/15 08:15:03;;;;;;;0.77;0.77;;;;;7.80;95499.00;;;;5095945;28;20222;-61
2022/11/15 08:17:32;;;;;;;0.73;0.73;;;;;7.80;95497.00;;;;5096049;28;20201;-63
2022/11/15 08:19:59;;;;;;;1.00;1.00;;;;;7.70;95494.00;;;;5096545;28;20222;-60
2022/11/15 08:22:26;;;;;;;1.00;1.00;;;;;7.90;95501.00;;;;5078164;28;20195;-61
2022/11/15 08:24:53;;;;;;;1.27;1.27;;;;;8.00;95485.00;;;;5077905;28;20202;-63
2022/11/15 08:27:19;;;;;;;1.40;1.10;;;;;8.10;95490.00;;;;5078304;28;20213;-64
2022/11/15 08:29:47;;;;;;;4.80;1.30;;;;;8.20;95488.00;;;;5096138;28;20198;-61
2022/11/15 08:32:15;;;;;;;0.90;0.90;;;;;8.30;95483.00;;;;5095730;28;20214;-61
2022/11/15 08:34:42;;;;;;;1.57;1.47;;;;;8.30;95479.00;;;;5095700;28;20618;-61
2022/11/15 08:37:09;;;;;;;6.37;2.57;;;;;8.50;95486.00;;;;5095565;28;20219;-61
2022/11/15 08:39:35;;;;;;;2.47;2.33;;;;;8.60;95473.00;;;;5095540;28;20279;-61
2022/11/15 08:42:02;;;;;;;2.03;1.93;;;;;8.70;95466.00;;;;5095556;28;20211;-61
2022/11/15 08:44:29;;;;;;;3.27;1.87;;;;;8.90;95480.00;;;;5095538;28;20194;-63
2022/11/15 08:46:58;;;;;;;1.30;1.23;;;;;8.90;95477.00;;;;5095687;28;20241;-63
2022/11/15 08:49:26;;;;;;;2.00;1.17;;;;;9.00;95465.00;;;;5095599;28;20211;-62
2022/11/15 08:51:54;;;;;;;0.63;0.63;;;;;9.10;95470.00;;;;5095549;28;20298;-62
2022/11/15 08:54:21;;;;;;;1.13;1.10;;;;;9.20;95464.00;;;;5095550;28;20218;-61
2022/11/15 08:56:48;;;;;;;1.30;1.20;;;;;9.30;95466.00;;;;5095504;28;20206;-63
2022/11/15 08:59:15;;;;;;;1.43;1.33;;;;;9.30;95478.00;;;;5095624;28;20247;-63
2022/11/15 09:01:42;;;;;;;1.73;1.63;;;;;9.50;95476.00;;;;5095709;28;20766;-60
2022/11/15 09:04:08;;;;;;;1.67;1.57;;;;;9.60;95470.00;;;;5095506;28;20214;-62
2022/11/15 09:06:36;;;;;;;0.80;0.80;;;;;9.70;95470.00;;;;5095294;28;20260;-62
2022/11/15 09:09:05;;;;;;;1.90;1.80;;;;;9.90;95471.00;;;;5095485;28;20227;-64
2022/11/15 09:11:32;;;;;;;0.77;0.77;;;;;9.90;95468.00;;;;5095072;28;20236;-62
2022/11/15 09:13:59;;;;;;;0.80;0.80;;;;;9.90;95460.00;;;;5095058;28;20210;-64
2022/11/15 09:16:25;;;;;;;0.77;0.77;;;;;10.00;95463.00;;;;5095163;28;20359;-62
2022/11/15 09:18:53;;;;;;;0.70;0.70;;;;;10.10;95454.00;;;;5077810;28;20335;-62
2022/11/15 09:21:20;;;;;;;1.07;1.07;;;;;10.20;95450.00;;;;5094994;28;20206;-62
2022/11/15 09:23:50;;;;;;;0.63;0.63;;;;;10.20;95443.00;;;;5094577;28;20251;-60
2022/11/15 09:26:19;;;;;;;0.80;0.80;;;;;10.30;95448.00;;;;5094887;28;20547;-62
2022/11/15 09:28:46;;;;;;;1.20;1.20;;;;;10.30;95450.00;;;;5095035;28;20191;-63
2022/11/15 09:31:13;;;;;;;0.67;0.67;;;;;10.30;95444.00;;;;5094924;28;20761;-62
2022/11/15 09:33:43;;;;;;;0.90;0.90;;;;;10.30;95446.00;;;;5094672;28;20225;-61
2022/11/15 09:36:11;;;;;;;0.83;0.83;;;;;10.50;95446.00;;;;5094730;28;20230;-61
2022/11/15 09:38:38;;;;;;;0.53;0.53;;;;;10.70;95444.00;;;;5094590;28;20307;-61
2022/11/15 09:41:43;;;;;;;0.50;0.50;;;;;10.60;95450.00;;;;5094685;28;20194;-61
2022/11/15 09:44:32;;;;;;;0.70;0.70;;;;;10.50;95442.00;;;;5070406;28;20253;-61
2022/11/15 09:47:07;;;;;;;0.93;0.93;;;;;10.80;95446.00;;;;5076591;28;20223;-61
2022/11/15 09:49:34;;;;;;;0.70;0.70;;;;;10.70;95453.00;;;;5076874;28;20194;-61
2022/11/15 09:52:02;;;;;;;1.20;1.10;;;;;10.80;95448.00;;;;5094509;28;20230;-61
2022/11/15 09:54:31;;;;;;;0.87;0.87;;;;;10.80;95444.00;;;;5094709;28;20264;-61
2022/11/15 09:57:05;;;;;;;3.30;0.87;;;;;11.00;95453.00;;;;5094278;28;20207;-62
2022/11/15 09:59:58;;;;;;;0.60;0.60;;;;;10.80;95444.00;;;;5094687;28;20198;-61
2022/11/15 10:02:42;;;;;;;0.60;0.60;;;;;10.70;95442.00;;;;5084210;28;20227;-61
2022/11/15 10:05:16;;;;;;;0.80;0.80;;;;;10.90;95435.00;;;;5094208;28;20214;-61
2022/11/15 10:07:50;;;;;;;0.80;0.80;;;;;10.70;95439.00;;;;5094207;28;20202;-61
2022/11/15 10:10:25;;;;;;;0.73;0.73;;;;;11.00;95432.00;;;;5076246;28;20202;-61
2022/11/15 10:12:53;;;;;;;0.60;0.60;;;;;10.90;95429.00;;;;5076335;28;20205;-60
2022/11/15 10:15:22;;;;;;;1.73;1.03;;;;;10.90;95429.00;;;;5094135;28;20232;-61
2022/11/15 10:18:06;;;;;;;0.90;0.90;;;;;10.80;95418.00;;;;5076460;28;20509;-61
2022/11/15 10:20:41;;;;;;;0.53;0.53;;;;;10.90;95416.00;;;;5094222;28;20190;-60
2022/11/15 10:23:14;;;;;;;0.80;0.80;;;;;10.90;95409.00;;;;5076054;28;20217;-61
2022/11/15 10:25:43;;;;;;;0.60;0.60;;;;;10.90;95424.00;;;;5093823;28;20350;-60
2022/11/15 10:28:17;;;;;;;0.77;0.77;;;;;11.10;95413.00;;;;5093855;28;20202;-61
2022/11/15 10:30:51;;;;;;;0.80;0.80;;;;;11.10;95414.00;;;;5093881;28;20252;-60
2022/11/15 10:33:26;;;;;;;0.97;0.97;;;;;11.30;95417.00;;;;5093918;28;20267;-60
2022/11/15 10:36:16;;;;;;;2.00;1.00;;;;;11.10;95408.00;;;;5093140;28;20735;-60
2022/11/15 10:39:04;;;;;;;0.63;0.63;;;;;10.80;95411.00;;;;5093884;28;20202;-60
2022/11/15 10:41:37;;;;;;;0.93;0.93;;;;;10.80;95407.00;;;;5087666;28;20215;-60
2022/11/15 10:44:26;;;;;;;0.77;0.77;;;;;10.80;95404.00;;;;5093806;28;20197;-62
2022/11/15 10:47:27;;;;;;;0.60;0.60;;;;;10.90;95407.00;;;;5093546;28;20219;-60
2022/11/15 10:49:57;;;;;;;2.67;1.17;;;;;11.00;95410.00;;;;5011981;28;20310;-61
2022/11/15 10:52:25;;;;;;;0.70;0.70;;;;;11.10;95397.00;;;;5079090;28;20301;-60
2022/11/15 10:54:58;;;;;;;0.60;0.60;;;;;11.00;95403.00;;;;5093453;28;20201;-60
2022/11/15 10:57:28;;;;;;;1.10;1.10;;;;;11.00;95396.00;;;;5093634;28;20291;-61
2022/11/15 10:59:57;;;;;;;0.60;0.60;;;;;11.00;95395.00;;;;5075861;28;20201;-61
2022/11/15 11:02:30;;;;;;;0.90;0.90;;;;;11.00;95401.00;;;;5093590;28;20262;-62
2022/11/15 11:05:00;;;;;;;0.70;0.70;;;;;10.90;95379.00;;;;5093476;28;20555;-60
2022/11/15 11:07:30;;;;;;;0.73;0.73;;;;;10.80;95385.00;;;;5093580;28;20264;-61
2022/11/15 11:10:02;;;;;;;1.13;1.13;;;;;10.90;95378.00;;;;5076058;28;20639;-61
2022/11/15 11:12:31;;;;;;;0.70;0.70;;;;;11.00;95372.00;;;;5093330;28;20195;-62
2022/11/15 11:15:09;;;;;;;2.83;1.53;;;;;11.10;95364.00;;;;5093542;28;20203;-60
2022/11/15 11:17:51;;;;;;;0.67;0.67;;;;;11.20;95362.00;;;;5093338;28;20298;-60
2022/11/15 11:20:27;;;;;;;0.90;0.90;;;;;11.20;95354.00;;;;5093627;28;20171;-60
2022/11/15 11:23:11;;;;;;;0.80;0.80;;;;;11.50;95348.00;;;;5093283;28;20190;-60
2022/11/15 11:25:45;;;;;;;0.60;0.60;;;;;11.50;95352.00;;;;5075563;28;20223;-63
2022/11/15 11:28:29;;;;;;;0.77;0.77;;;;;11.60;95347.00;;;;5093184;28;20211;-60
2022/11/15 11:31:07;;;;;;;0.83;0.83;;;;;11.60;95337.00;;;;5075429;28;20214;-60
2022/11/15 11:33:42;;;;;;;0.97;0.97;;;;;11.60;95338.00;;;;5075145;28;20631;-62
2022/11/15 11:36:20;;;;;;;1.50;1.00;;;;;11.70;95328.00;;;;5093148;28;20198;-60
2022/11/15 11:38:58;;;;;;;1.10;1.10;;;;;11.80;95331.00;;;;5075350;28;20223;-61
2022/11/15 11:41:49;;;;;;;0.50;0.50;;;;;11.70;95333.00;;;;5092911;28;20217;-60
2022/11/15 11:44:30;;;;;;;0.60;0.60;;;;;11.70;95324.00;;;;5075450;28;20196;-62
2022/11/15 11:47:00;;;;;;;0.80;0.80;;;;;11.70;95320.00;;;;5095748;28;20218;-59
2022/11/15 11:49:33;;;;;;;0.67;0.67;;;;;11.80;95306.00;;;;5079062;28;20231;-60
2022/11/15 11:52:05;;;;;;;1.20;1.20;;;;;11.80;95310.00;;;;5078528;28;20279;-60
2022/11/15 11:54:42;;;;;;;1.17;1.17;;;;;11.80;95319.00;;;;5096438;28;20198;-60
2022/11/15 11:57:17;;;;;;;0.60;0.60;;;;;11.80;95313.00;;;;5096085;28;20198;-61
2022/11/15 11:59:50;;;;;;;0.60;0.60;;;;;11.90;95314.00;;;;5078177;28;20255;-59
2022/11/15 12:02:21;;;;;;;0.70;0.70;;;;;11.80;95313.00;;;;5078493;28;20642;-58
2022/11/15 12:04:55;;;;;;;0.80;0.80;;;;;11.90;95306.00;;;;5096370;28;20607;-59
2022/11/15 12:07:28;;;;;;;0.70;0.70;;;;;11.90;95309.00;;;;5078212;28;20269;-59
2022/11/15 12:09:59;;;;;;;0.93;0.90;;;;;12.10;95305.00;;;;5096042;28;20198;-61
2022/11/15 12:12:35;;;;;;;1.00;1.00;;;;;12.10;95305.00;;;;5078382;28;20251;-61
2022/11/15 12:15:04;;;;;;;0.80;0.80;;;;;12.20;95297.00;;;;5078475;28;20199;-61
2022/11/15 12:17:33;;;;;;;1.30;1.20;;;;;12.30;95296.00;;;;5096078;28;20215;-60
2022/11/15 12:20:01;;;;;;;0.80;0.80;;;;;12.30;95289.00;;;;5095948;28;20218;-60
2022/11/15 12:22:37;;;;;;;0.50;0.50;;;;;12.40;95290.00;;;;5095834;28;20529;-60
2022/11/15 12:25:14;;;;;;;0.83;0.83;;;;;12.50;95287.00;;;;5095998;28;20565;-62
2022/11/15 12:27:44;;;;;;;0.50;0.50;;;;;12.50;95293.00;;;;5078087;28;20281;-60
2022/11/15 12:30:14;;;;;;;0.60;0.60;;;;;12.60;95289.00;;;;5095846;28;20690;-60
2022/11/15 12:32:53;;;;;;;1.37;1.03;;;;;12.60;95291.00;;;;5095780;28;20195;-60
2022/11/15 12:35:33;;;;;;;0.67;0.67;;;;;12.70;95291.00;;;;5095746;28;20232;-59
2022/11/15 12:38:02;;;;;;;0.80;0.80;;;;;12.70;95293.00;;;;5095750;28;20221;-60
2022/11/15 12:40:32;;;;;;;0.50;0.50;;;;;12.70;95277.00;;;;5077858;28;20234;-60
2022/11/15 12:43:05;;;;;;;0.60;0.60;;;;;13.10;95283.00;;;;5077740;28;20221;-60
2022/11/15 12:45:34;;;;;;;0.60;0.60;;;;;13.20;95274.00;;;;5095243;28;20226;-60
2022/11/15 12:48:46;;;;;;;0.70;0.70;;;;;13.30;95266.00;;;;5077979;28;20201;-58